sensor_id;sensor_type;location;lat;lon;timestamp;pressure;altitude;pressure_sealevel;temperature;humidity
78841;BME280;68379;47.190;27.558;2024-02-21T00:00:33;100545.19;;;1.43;79.60
78841;BME280;68379;47.190;27.558;2024-02-21T00:03:25;100538.91;;;1.42;79.66
78841;BME280;68379;47.190;27.558;2024-02-21T00:05:56;100538.05;;;1.43;79.73
78841;BME280;68379;47.190;27.558;2024-02-21T00:08:28;100537.70;;;1.43;79.80
78841;BME280;68379;47.190;27.558;2024-02-21T00:10:59;100541.20;;;1.45;79.82
78841;BME280;68379;47.190;27.558;2024-02-21T00:13:31;100538.42;;;1.47;79.77
78841;BME280;68379;47.190;27.558;2024-02-21T00:16:03;100535.31;;;1.49;79.72
78841;BME280;68379;47.190;27.558;2024-02-21T00:18:35;100530.27;;;1.50;79.62
78841;BME280;68379;47.190;27.558;2024-02-21T00:21:07;100530.11;;;1.52;79.70
78841;BME280;68379;47.190;27.558;2024-02-21T00:23:38;100526.48;;;1.54;79.58
78841;BME280;68379;47.190;27.558;2024-02-21T00:26:09;100522.14;;;1.56;79.67
78841;BME280;68379;47.190;27.558;2024-02-21T00:28:41;100521.45;;;1.56;79.66
78841;BME280;68379;47.190;27.558;2024-02-21T00:31:12;100522.50;;;1.58;79.65
78841;BME280;68379;47.190;27.558;2024-02-21T00:33:44;100519.02;;;1.58;79.77
78841;BME280;68379;47.190;27.558;2024-02-21T00:36:16;100514.86;;;1.60;79.89
78841;BME280;68379;47.190;27.558;2024-02-21T00:38:48;100513.98;;;1.61;79.81
78841;BME280;68379;47.190;27.558;2024-02-21T00:41:19;100513.48;;;1.61;79.83
78841;BME280;68379;47.190;27.558;2024-02-21T00:43:51;100509.13;;;1.61;79.63
78841;BME280;68379;47.190;27.558;2024-02-21T00:46:22;100509.98;;;1.60;79.49
78841;BME280;68379;47.190;27.558;2024-02-21T00:48:54;100506.49;;;1.60;79.55
78841;BME280;68379;47.190;27.558;2024-02-21T00:51:25;100506.17;;;1.62;79.38
78841;BME280;68379;47.190;27.558;2024-02-21T00:53:56;100507.91;;;1.64;79.23
78841;BME280;68379;47.190;27.558;2024-02-21T00:56:28;100502.71;;;1.65;79.54
78841;BME280;68379;47.190;27.558;2024-02-21T00:59:00;100502.91;;;1.68;79.46
78841;BME280;68379;47.190;27.558;2024-02-21T01:01:32;100499.77;;;1.69;79.52
78841;BME280;68379;47.190;27.558;2024-02-21T01:04:04;100494.56;;;1.71;79.44
78841;BME280;68379;47.190;27.558;2024-02-21T01:06:35;100493.54;;;1.72;79.05
78841;BME280;68379;47.190;27.558;2024-02-21T01:09:06;100490.08;;;1.77;79.22
78841;BME280;68379;47.190;27.558;2024-02-21T01:11:38;100494.98;;;1.81;79.31
78841;BME280;68379;47.190;27.558;2024-02-21T01:14:10;100488.19;;;1.83;79.23
78841;BME280;68379;47.190;27.558;2024-02-21T01:16:42;100487.50;;;1.84;79.39
78841;BME280;68379;47.190;27.558;2024-02-21T01:19:13;100485.25;;;1.84;79.16
78841;BME280;68379;47.190;27.558;2024-02-21T01:21:45;100479.16;;;1.85;79.16
78841;BME280;68379;47.190;27.558;2024-02-21T01:24:16;100483.52;;;1.87;79.12
78841;BME280;68379;47.190;27.558;2024-02-21T01:26:48;100480.38;;;1.85;79.26
78841;BME280;68379;47.190;27.558;2024-02-21T01:29:19;100477.56;;;1.82;79.26
78841;BME280;68379;47.190;27.558;2024-02-21T01:31:51;100474.77;;;1.81;79.25
78841;BME280;68379;47.190;27.558;2024-02-21T01:34:23;100475.82;;;1.79;79.47
78841;BME280;68379;47.190;27.558;2024-02-21T01:36:54;100474.25;;;1.79;79.63
78841;BME280;68379;47.190;27.558;2024-02-21T01:39:25;100473.18;;;1.77;79.59
78841;BME280;68379;47.190;27.558;2024-02-21T01:41:57;100473.17;;;1.77;79.36
78841;BME280;68379;47.190;27.558;2024-02-21T01:44:28;100472.48;;;1.78;79.75
78841;BME280;68379;47.190;27.558;2024-02-21T01:47:00;100473.53;;;1.78;79.77
78841;BME280;68379;47.190;27.558;2024-02-21T01:49:32;100478.08;;;1.79;79.55
78841;BME280;68379;47.190;27.558;2024-02-21T01:52:04;100478.43;;;1.80;79.63
78841;BME280;68379;47.190;27.558;2024-02-21T01:54:36;100477.04;;;1.80;79.91
78841;BME280;68379;47.190;27.558;2024-02-21T01:57:09;100474.06;;;1.79;79.85
78841;BME280;68379;47.190;27.558;2024-02-21T01:59:40;100471.27;;;1.77;80.03
78841;BME280;68379;47.190;27.558;2024-02-21T02:02:12;100472.47;;;1.75;80.17
78841;BME280;68379;47.190;27.558;2024-02-21T02:04:44;100469.66;;;1.72;80.32
78841;BME280;68379;47.190;27.558;2024-02-21T02:07:16;100466.32;;;1.67;80.33
78841;BME280;68379;47.190;27.558;2024-02-21T02:09:47;100476.60;;;1.68;80.35
78841;BME280;68379;47.190;27.558;2024-02-21T02:12:19;100472.57;;;1.65;80.32
78841;BME280;68379;47.190;27.558;2024-02-21T02:15:00;100469.42;;;1.61;80.57
78841;BME280;68379;47.190;27.558;2024-02-21T02:17:34;100469.21;;;1.58;80.56
78841;BME280;68379;47.190;27.558;2024-02-21T02:20:07;100467.98;;;1.55;80.64
78841;BME280;68379;47.190;27.558;2024-02-21T02:22:40;100473.19;;;1.53;80.48
78841;BME280;68379;47.190;27.558;2024-02-21T02:25:14;100476.65;;;1.52;80.45
78841;BME280;68379;47.190;27.558;2024-02-21T02:27:46;100473.67;;;1.49;80.74
78841;BME280;68379;47.190;27.558;2024-02-21T02:30:17;100471.38;;;1.46;80.75
78841;BME280;68379;47.190;27.558;2024-02-21T02:32:49;100470.34;;;1.45;80.86
78841;BME280;68379;47.190;27.558;2024-02-21T02:35:20;100471.02;;;1.43;80.97
78841;BME280;68379;47.190;27.558;2024-02-21T02:37:52;100471.00;;;1.42;81.02
78841;BME280;68379;47.190;27.558;2024-02-21T02:40:24;100472.75;;;1.41;81.13
78841;BME280;68379;47.190;27.558;2024-02-21T02:42:55;100472.54;;;1.39;81.08
78841;BME280;68379;47.190;27.558;2024-02-21T02:45:27;100470.98;;;1.38;81.24
78841;BME280;68379;47.190;27.558;2024-02-21T02:47:59;100468.88;;;1.37;81.20
78841;BME280;68379;47.190;27.558;2024-02-21T02:50:31;100473.41;;;1.37;81.29
78841;BME280;68379;47.190;27.558;2024-02-21T02:53:03;100471.50;;;1.37;81.38
78841;BME280;68379;47.190;27.558;2024-02-21T02:55:35;100476.20;;;1.38;81.55
78841;BME280;68379;47.190;27.558;2024-02-21T02:58:06;100469.73;;;1.35;81.56
78841;BME280;68379;47.190;27.558;2024-02-21T03:00:38;100480.20;;;1.38;81.50
78841;BME280;68379;47.190;27.558;2024-02-21T03:03:10;100478.14;;;1.39;81.62
78841;BME280;68379;47.190;27.558;2024-02-21T03:05:42;100473.77;;;1.39;81.58
78841;BME280;68379;47.190;27.558;2024-02-21T03:08:14;100475.86;;;1.40;81.64
78841;BME280;68379;47.190;27.558;2024-02-21T03:10:45;100473.78;;;1.41;81.64
78841;BME280;68379;47.190;27.558;2024-02-21T03:13:17;100476.24;;;1.42;81.63
78841;BME280;68379;47.190;27.558;2024-02-21T03:15:48;100480.60;;;1.42;81.57
78841;BME280;68379;47.190;27.558;2024-02-21T03:18:20;100474.49;;;1.42;81.35
78841;BME280;68379;47.190;27.558;2024-02-21T03:20:52;100477.96;;;1.43;81.24
78841;BME280;68379;47.190;27.558;2024-02-21T03:23:24;100488.61;;;1.43;81.66
78841;BME280;68379;47.190;27.558;2024-02-21T03:25:55;100497.32;;;1.44;82.05
78841;BME280;68379;47.190;27.558;2024-02-21T03:28:27;100496.27;;;1.44;82.00
78841;BME280;68379;47.190;27.558;2024-02-21T03:30:59;100494.88;;;1.45;81.68
78841;BME280;68379;47.190;27.558;2024-02-21T03:33:30;100494.52;;;1.45;81.74
78841;BME280;68379;47.190;27.558;2024-02-21T03:36:02;100492.27;;;1.44;81.75
78841;BME280;68379;47.190;27.558;2024-02-21T03:38:34;100500.95;;;1.43;81.77
78841;BME280;68379;47.190;27.558;2024-02-21T03:41:06;100498.16;;;1.41;81.61
78841;BME280;68379;47.190;27.558;2024-02-21T03:43:39;100500.39;;;1.37;81.63
78841;BME280;68379;47.190;27.558;2024-02-21T03:46:10;100499.84;;;1.34;81.15
78841;BME280;68379;47.190;27.558;2024-02-21T03:48:42;100504.64;;;1.25;80.97
78841;BME280;68379;47.190;27.558;2024-02-21T03:51:13;100505.63;;;1.18;80.76
78841;BME280;68379;47.190;27.558;2024-02-21T03:53:45;100500.85;;;1.10;81.06
78841;BME280;68379;47.190;27.558;2024-02-21T03:56:17;100503.23;;;1.06;81.56
78841;BME280;68379;47.190;27.558;2024-02-21T03:58:49;100504.45;;;1.04;81.87
78841;BME280;68379;47.190;27.558;2024-02-21T04:01:21;100504.09;;;1.03;82.31
78841;BME280;68379;47.190;27.558;2024-02-21T04:03:52;100507.41;;;1.04;82.23
78841;BME280;68379;47.190;27.558;2024-02-21T04:06:24;100513.98;;;1.02;81.72
78841;BME280;68379;47.190;27.558;2024-02-21T04:08:56;100514.85;;;1.02;81.73
78841;BME280;68379;47.190;27.558;2024-02-21T04:11:28;100515.20;;;1.01;81.45
78841;BME280;68379;47.190;27.558;2024-02-21T04:14:00;100518.15;;;1.01;81.58
78841;BME280;68379;47.190;27.558;2024-02-21T04:16:32;100514.30;;;0.98;81.79
78841;BME280;68379;47.190;27.558;2024-02-21T04:19:03;100515.69;;;0.97;82.08
78841;BME280;68379;47.190;27.558;2024-02-21T04:21:35;100517.94;;;0.96;81.75
78841;BME280;68379;47.190;27.558;2024-02-21T04:24:07;100517.40;;;0.94;81.41
78841;BME280;68379;47.190;27.558;2024-02-21T04:26:39;100515.26;;;0.90;80.83
78841;BME280;68379;47.190;27.558;2024-02-21T04:29:10;100516.41;;;0.85;81.32
78841;BME280;68379;47.190;27.558;2024-02-21T04:31:42;100512.91;;;0.81;81.76
78841;BME280;68379;47.190;27.558;2024-02-21T04:34:13;100519.14;;;0.79;81.79
78841;BME280;68379;47.190;27.558;2024-02-21T04:36:45;100519.80;;;0.76;81.65
78841;BME280;68379;47.190;27.558;2024-02-21T04:39:16;100525.16;;;0.74;81.60
78841;BME280;68379;47.190;27.558;2024-02-21T04:41:48;100518.88;;;0.73;82.11
78841;BME280;68379;47.190;27.558;2024-02-21T04:44:19;100518.54;;;0.72;82.15
78841;BME280;68379;47.190;27.558;2024-02-21T04:46:52;100519.05;;;0.71;82.41
78841;BME280;68379;47.190;27.558;2024-02-21T04:49:23;100517.29;;;0.70;82.79
78841;BME280;68379;47.190;27.558;2024-02-21T04:51:55;100508.04;;;0.67;82.90
78841;BME280;68379;47.190;27.558;2024-02-21T04:54:27;100514.62;;;0.65;82.76
78841;BME280;68379;47.190;27.558;2024-02-21T04:56:58;100513.39;;;0.64;82.80
78841;BME280;68379;47.190;27.558;2024-02-21T04:59:30;100516.00;;;0.64;83.15
78841;BME280;68379;47.190;27.558;2024-02-21T05:02:01;100518.61;;;0.64;82.47
78841;BME280;68379;47.190;27.558;2024-02-21T05:04:33;100520.33;;;0.62;81.93
78841;BME280;68379;47.190;27.558;2024-02-21T05:07:07;100523.42;;;0.60;82.47
78841;BME280;68379;47.190;27.558;2024-02-21T05:09:41;100522.92;;;0.60;83.22
78841;BME280;68379;47.190;27.558;2024-02-21T05:12:13;100523.77;;;0.59;82.92
78841;BME280;68379;47.190;27.558;2024-02-21T05:14:45;100524.82;;;0.59;83.04
78841;BME280;68379;47.190;27.558;2024-02-21T05:17:16;100525.18;;;0.60;83.20
78841;BME280;68379;47.190;27.558;2024-02-21T05:19:48;100525.56;;;0.63;83.31
78841;BME280;68379;47.190;27.558;2024-02-21T05:22:20;100529.28;;;0.69;83.78
78841;BME280;68379;47.190;27.558;2024-02-21T05:24:51;100528.65;;;0.74;83.54
78841;BME280;68379;47.190;27.558;2024-02-21T05:27:23;100527.48;;;0.78;83.52
78841;BME280;68379;47.190;27.558;2024-02-21T05:29:54;100522.13;;;0.81;83.45
78841;BME280;68379;47.190;27.558;2024-02-21T05:32:27;100521.11;;;0.84;83.53
78841;BME280;68379;47.190;27.558;2024-02-21T05:34:58;100526.55;;;0.88;83.54
78841;BME280;68379;47.190;27.558;2024-02-21T05:37:30;100523.29;;;0.93;83.68
78841;BME280;68379;47.190;27.558;2024-02-21T05:40:02;100524.73;;;0.96;83.53
78841;BME280;68379;47.190;27.558;2024-02-21T05:42:33;100525.45;;;0.99;83.42
78841;BME280;68379;47.190;27.558;2024-02-21T05:45:06;100532.42;;;1.02;83.13
78841;BME280;68379;47.190;27.558;2024-02-21T05:47:38;100536.65;;;1.06;82.56
78841;BME280;68379;47.190;27.558;2024-02-21T05:50:11;100540.17;;;1.10;82.72
78841;BME280;68379;47.190;27.558;2024-02-21T05:52:42;100542.31;;;1.16;83.16
78841;BME280;68379;47.190;27.558;2024-02-21T05:55:14;100540.97;;;1.20;82.90
78841;BME280;68379;47.190;27.558;2024-02-21T05:57:45;100547.08;;;1.22;82.91
78841;BME280;68379;47.190;27.558;2024-02-21T06:00:18;100542.92;;;1.25;82.92
78841;BME280;68379;47.190;27.558;2024-02-21T06:02:50;100544.39;;;1.31;83.16
78841;BME280;68379;47.190;27.558;2024-02-21T06:05:22;100546.86;;;1.37;83.16
78841;BME280;68379;47.190;27.558;2024-02-21T06:07:54;100545.52;;;1.42;82.88
78841;BME280;68379;47.190;27.558;2024-02-21T06:10:25;100545.08;;;1.50;83.03
78841;BME280;68379;47.190;27.558;2024-02-21T06:12:57;100543.38;;;1.57;82.95
78841;BME280;68379;47.190;27.558;2024-02-21T06:15:29;100543.96;;;1.62;82.99
78841;BME280;68379;47.190;27.558;2024-02-21T06:18:00;100551.88;;;1.72;82.82
78841;BME280;68379;47.190;27.558;2024-02-21T06:20:32;100550.55;;;1.80;82.61
78841;BME280;68379;47.190;27.558;2024-02-21T06:23:06;100549.73;;;1.86;82.62
78841;BME280;68379;47.190;27.558;2024-02-21T06:25:37;100554.48;;;1.93;82.29
78841;BME280;68379;47.190;27.558;2024-02-21T06:28:10;100559.40;;;1.98;82.58
78841;BME280;68379;47.190;27.558;2024-02-21T06:30:42;100563.80;;;2.05;82.26
78841;BME280;68379;47.190;27.558;2024-02-21T06:33:13;100566.10;;;2.09;82.20
78841;BME280;68379;47.190;27.558;2024-02-21T06:35:45;100564.36;;;2.10;81.99
78841;BME280;68379;47.190;27.558;2024-02-21T06:38:17;100568.89;;;2.10;82.05
78841;BME280;68379;47.190;27.558;2024-02-21T06:40:49;100569.94;;;2.11;81.99
78841;BME280;68379;47.190;27.558;2024-02-21T06:43:22;100568.73;;;2.15;82.33
78841;BME280;68379;47.190;27.558;2024-02-21T06:45:53;100567.88;;;2.15;82.07
78841;BME280;68379;47.190;27.558;2024-02-21T06:48:26;100563.86;;;2.18;82.07
78841;BME280;68379;47.190;27.558;2024-02-21T06:50:58;100571.23;;;2.22;81.99
78841;BME280;68379;47.190;27.558;2024-02-21T06:53:30;100574.24;;;2.30;82.19
78841;BME280;68379;47.190;27.558;2024-02-21T06:56:01;100577.09;;;2.41;82.27
78841;BME280;68379;47.190;27.558;2024-02-21T06:58:33;100575.60;;;2.55;82.28
78841;BME280;68379;47.190;27.558;2024-02-21T07:01:05;100576.52;;;2.67;82.11
78841;BME280;68379;47.190;27.558;2024-02-21T07:03:37;100577.27;;;2.76;81.72
78841;BME280;68379;47.190;27.558;2024-02-21T07:06:09;100582.17;;;2.83;81.82
78841;BME280;68379;47.190;27.558;2024-02-21T07:08:40;100585.73;;;2.97;81.84
78841;BME280;68379;47.190;27.558;2024-02-21T07:11:12;100583.33;;;3.11;81.65
78841;BME280;68379;47.190;27.558;2024-02-21T07:13:44;100587.38;;;3.25;81.52
78841;BME280;68379;47.190;27.558;2024-02-21T07:16:15;100588.63;;;3.39;81.38
78841;BME280;68379;47.190;27.558;2024-02-21T07:18:47;100587.43;;;3.52;81.28
78841;BME280;68379;47.190;27.558;2024-02-21T07:21:18;100589.18;;;3.62;80.93
78841;BME280;68379;47.190;27.558;2024-02-21T07:23:50;100585.18;;;3.74;80.95
78841;BME280;68379;47.190;27.558;2024-02-21T07:26:21;100587.45;;;3.89;80.97
78841;BME280;68379;47.190;27.558;2024-02-21T07:28:53;100584.48;;;4.02;80.83
78841;BME280;68379;47.190;27.558;2024-02-21T07:31:24;100584.45;;;4.16;80.59
78841;BME280;68379;47.190;27.558;2024-02-21T07:33:56;100586.70;;;4.27;80.34
78841;BME280;68379;47.190;27.558;2024-02-21T07:36:29;100582.86;;;4.35;80.25
78841;BME280;68379;47.190;27.558;2024-02-21T07:39:01;100592.61;;;4.51;80.25
78841;BME280;68379;47.190;27.558;2024-02-21T07:41:33;100593.81;;;4.59;80.09
78841;BME280;68379;47.190;27.558;2024-02-21T07:44:05;100592.39;;;4.70;79.86
78841;BME280;68379;47.190;27.558;2024-02-21T07:46:36;100591.99;;;4.83;79.75
78841;BME280;68379;47.190;27.558;2024-02-21T07:49:08;100592.80;;;4.97;79.42
78841;BME280;68379;47.190;27.558;2024-02-21T07:51:40;100588.38;;;5.07;79.21
78841;BME280;68379;47.190;27.558;2024-02-21T07:54:12;100586.58;;;5.17;78.97
78841;BME280;68379;47.190;27.558;2024-02-21T07:56:44;100589.11;;;5.32;78.95
78841;BME280;68379;47.190;27.558;2024-02-21T07:59:16;100593.42;;;5.44;78.68
78841;BME280;68379;47.190;27.558;2024-02-21T08:01:48;100591.77;;;5.54;78.63
78841;BME280;68379;47.190;27.558;2024-02-21T08:04:19;100594.11;;;5.71;78.41
78841;BME280;68379;47.190;27.558;2024-02-21T08:06:54;100592.02;;;5.93;78.27
78841;BME280;68379;47.190;27.558;2024-02-21T08:09:26;100594.14;;;6.15;77.81
78841;BME280;68379;47.190;27.558;2024-02-21T08:11:58;100594.12;;;6.34;77.57
78841;BME280;68379;47.190;27.558;2024-02-21T08:14:30;100593.21;;;6.54;77.71
78841;BME280;68379;47.190;27.558;2024-02-21T08:17:01;100589.52;;;6.70;77.36
78841;BME280;68379;47.190;27.558;2024-02-21T08:19:34;100588.70;;;6.81;76.77
78841;BME280;68379;47.190;27.558;2024-02-21T08:22:05;100592.17;;;6.85;77.42
78841;BME280;68379;47.190;27.558;2024-02-21T08:24:37;100591.23;;;6.89;76.98
78841;BME280;68379;47.190;27.558;2024-02-21T08:27:09;100594.27;;;6.85;76.98
78841;BME280;68379;47.190;27.558;2024-02-21T08:29:40;100595.45;;;6.74;76.97
78841;BME280;68379;47.190;27.558;2024-02-21T08:32:12;100595.64;;;6.72;77.10
78841;BME280;68379;47.190;27.558;2024-02-21T08:34:43;100597.46;;;6.67;77.24
78841;BME280;68379;47.190;27.558;2024-02-21T08:37:15;100594.25;;;6.57;76.80
78841;BME280;68379;47.190;27.558;2024-02-21T08:39:46;100605.31;;;6.56;76.66
78841;BME280;68379;47.190;27.558;2024-02-21T08:42:18;100611.85;;;6.50;76.66
78841;BME280;68379;47.190;27.558;2024-02-21T08:44:50;100608.55;;;6.49;77.01
78841;BME280;68379;47.190;27.558;2024-02-21T08:47:21;100607.54;;;6.44;76.88
78841;BME280;68379;47.190;27.558;2024-02-21T08:49:54;100609.88;;;6.39;76.32
78841;BME280;68379;47.190;27.558;2024-02-21T08:52:26;100614.86;;;6.32;75.96
78841;BME280;68379;47.190;27.558;2024-02-21T08:54:57;100617.33;;;6.31;76.22
78841;BME280;68379;47.190;27.558;2024-02-21T08:57:29;100617.64;;;6.34;76.13
78841;BME280;68379;47.190;27.558;2024-02-21T09:00:09;100614.24;;;6.40;76.24
78841;BME280;68379;47.190;27.558;2024-02-21T09:02:41;100613.15;;;6.44;76.01
78841;BME280;68379;47.190;27.558;2024-02-21T09:05:14;100617.16;;;6.47;75.92
78841;BME280;68379;47.190;27.558;2024-02-21T09:07:45;100619.98;;;6.46;75.64
78841;BME280;68379;47.190;27.558;2024-02-21T09:10:17;100620.00;;;6.44;75.74
78841;BME280;68379;47.190;27.558;2024-02-21T09:12:49;100616.67;;;6.43;75.61
78841;BME280;68379;47.190;27.558;2024-02-21T09:15:25;100623.14;;;6.46;75.70
78841;BME280;68379;47.190;27.558;2024-02-21T09:17:57;100623.84;;;6.46;75.46
78841;BME280;68379;47.190;27.558;2024-02-21T09:20:29;100625.30;;;6.41;75.61
78841;BME280;68379;47.190;27.558;2024-02-21T09:23:01;100621.59;;;6.42;75.72
78841;BME280;68379;47.190;27.558;2024-02-21T09:25:33;100619.66;;;6.42;75.64
78841;BME280;68379;47.190;27.558;2024-02-21T09:28:05;100618.92;;;6.46;75.90
78841;BME280;68379;47.190;27.558;2024-02-21T09:30:37;100616.76;;;6.53;75.56
78841;BME280;68379;47.190;27.558;2024-02-21T09:33:09;100614.71;;;6.63;75.55
78841;BME280;68379;47.190;27.558;2024-02-21T09:35:40;100615.83;;;6.75;75.49
78841;BME280;68379;47.190;27.558;2024-02-21T09:38:12;100615.55;;;6.83;75.32
78841;BME280;68379;47.190;27.558;2024-02-21T09:40:43;100612.60;;;6.93;75.28
78841;BME280;68379;47.190;27.558;2024-02-21T09:43:19;100615.08;;;7.06;75.14
78841;BME280;68379;47.190;27.558;2024-02-21T09:45:52;100614.59;;;7.18;74.73
78841;BME280;68379;47.190;27.558;2024-02-21T09:48:35;100608.64;;;7.29;74.71
78841;BME280;68379;47.190;27.558;2024-02-21T09:51:15;100610.00;;;7.45;74.61
78841;BME280;68379;47.190;27.558;2024-02-21T09:53:48;100608.77;;;7.58;74.48
78841;BME280;68379;47.190;27.558;2024-02-21T09:56:22;100613.33;;;7.69;74.21
78841;BME280;68379;47.190;27.558;2024-02-21T09:58:54;100607.73;;;7.79;74.19
78841;BME280;68379;47.190;27.558;2024-02-21T10:01:25;100607.27;;;7.86;74.18
78841;BME280;68379;47.190;27.558;2024-02-21T10:03:57;100608.71;;;7.94;73.92
78841;BME280;68379;47.190;27.558;2024-02-21T10:06:28;100606.25;;;8.05;73.60
78841;BME280;68379;47.190;27.558;2024-02-21T10:09:00;100605.19;;;8.16;73.51
78841;BME280;68379;47.190;27.558;2024-02-21T10:11:31;100603.24;;;8.26;73.39
78841;BME280;68379;47.190;27.558;2024-02-21T10:14:08;100598.08;;;8.30;73.50
78841;BME280;68379;47.190;27.558;2024-02-21T10:16:39;100597.10;;;8.36;73.05
78841;BME280;68379;47.190;27.558;2024-02-21T10:19:19;100595.70;;;8.46;73.00
78841;BME280;68379;47.190;27.558;2024-02-21T10:22:06;100592.50;;;8.57;72.76
78841;BME280;68379;47.190;27.558;2024-02-21T10:24:38;100587.11;;;8.71;72.48
78841;BME280;68379;47.190;27.558;2024-02-21T10:27:11;100588.27;;;8.84;72.18
78841;BME280;68379;47.190;27.558;2024-02-21T10:29:42;100579.78;;;8.94;71.93
78841;BME280;68379;47.190;27.558;2024-02-21T10:32:21;100574.20;;;9.08;70.87
78841;BME280;68379;47.190;27.558;2024-02-21T10:35:02;100570.54;;;9.23;70.99
78841;BME280;68379;47.190;27.558;2024-02-21T10:37:35;100567.47;;;9.34;70.87
78841;BME280;68379;47.190;27.558;2024-02-21T10:40:09;100561.72;;;9.46;70.93
78841;BME280;68379;47.190;27.558;2024-02-21T10:42:42;100559.55;;;9.56;71.08
78841;BME280;68379;47.190;27.558;2024-02-21T10:45:14;100554.48;;;9.61;71.07
78841;BME280;68379;47.190;27.558;2024-02-21T10:47:54;100544.23;;;9.69;71.14
78841;BME280;68379;47.190;27.558;2024-02-21T10:50:29;100546.66;;;9.78;70.58
78841;BME280;68379;47.190;27.558;2024-02-21T10:53:12;100543.66;;;9.92;70.55
78841;BME280;68379;47.190;27.558;2024-02-21T10:55:56;100542.71;;;10.09;70.23
78841;BME280;68379;47.190;27.558;2024-02-21T10:58:30;100537.91;;;10.16;70.71
78841;BME280;68379;47.190;27.558;2024-02-21T11:01:04;100531.89;;;10.23;68.93
78841;BME280;68379;47.190;27.558;2024-02-21T11:03:37;100528.19;;;10.37;68.34
78841;BME280;68379;47.190;27.558;2024-02-21T11:06:10;100524.40;;;10.47;67.45
78841;BME280;68379;47.190;27.558;2024-02-21T11:08:43;100518.95;;;10.46;67.77
78841;BME280;68379;47.190;27.558;2024-02-21T11:11:15;100521.02;;;10.54;66.38
78841;BME280;68379;47.190;27.558;2024-02-21T11:13:49;100517.20;;;10.70;65.85
78841;BME280;68379;47.190;27.558;2024-02-21T11:16:24;100510.02;;;10.86;66.68
78841;BME280;68379;47.190;27.558;2024-02-21T11:19:06;100508.92;;;10.92;66.01
78841;BME280;68379;47.190;27.558;2024-02-21T11:21:38;100508.40;;;10.93;66.53
78841;BME280;68379;47.190;27.558;2024-02-21T11:24:09;100502.92;;;10.93;66.33
78841;BME280;68379;47.190;27.558;2024-02-21T11:26:41;100497.67;;;10.91;65.64
78841;BME280;68379;47.190;27.558;2024-02-21T11:29:13;100497.84;;;10.91;65.64
78841;BME280;68379;47.190;27.558;2024-02-21T11:31:57;100495.89;;;10.91;65.70
78841;BME280;68379;47.190;27.558;2024-02-21T11:34:28;100493.04;;;10.92;64.95
78841;BME280;68379;47.190;27.558;2024-02-21T11:37:00;100491.35;;;10.96;64.88
78841;BME280;68379;47.190;27.558;2024-02-21T11:39:32;100489.39;;;10.96;65.32
78841;BME280;68379;47.190;27.558;2024-02-21T11:42:05;100479.65;;;10.96;64.30
78841;BME280;68379;47.190;27.558;2024-02-21T11:44:38;100478.36;;;10.92;64.30
78841;BME280;68379;47.190;27.558;2024-02-21T11:47:13;100475.81;;;10.89;64.51
78841;BME280;68379;47.190;27.558;2024-02-21T11:49:48;100474.53;;;10.90;64.77
78841;BME280;68379;47.190;27.558;2024-02-21T11:52:25;100479.48;;;10.90;64.19
78841;BME280;68379;47.190;27.558;2024-02-21T11:54:57;100476.05;;;10.93;63.72
78841;BME280;68379;47.190;27.558;2024-02-21T11:57:34;100474.34;;;10.91;63.66
78841;BME280;68379;47.190;27.558;2024-02-21T12:00:18;100472.32;;;10.99;63.62
78841;BME280;68379;47.190;27.558;2024-02-21T12:02:51;100470.73;;;11.21;63.58
78841;BME280;68379;47.190;27.558;2024-02-21T12:05:23;100470.61;;;11.36;63.70
78841;BME280;68379;47.190;27.558;2024-02-21T12:07:57;100469.60;;;11.51;63.51
78841;BME280;68379;47.190;27.558;2024-02-21T12:10:29;100467.89;;;11.60;61.96
78841;BME280;68379;47.190;27.558;2024-02-21T12:13:08;100464.78;;;11.63;63.26
78841;BME280;68379;47.190;27.558;2024-02-21T12:15:41;100463.48;;;11.59;63.07
78841;BME280;68379;47.190;27.558;2024-02-21T12:18:13;100458.52;;;11.64;62.86
78841;BME280;68379;47.190;27.558;2024-02-21T12:20:45;100454.84;;;11.79;61.47
78841;BME280;68379;47.190;27.558;2024-02-21T12:23:21;100453.52;;;11.81;61.71
78841;BME280;68379;47.190;27.558;2024-02-21T12:25:54;100448.86;;;11.78;62.88
78841;BME280;68379;47.190;27.558;2024-02-21T12:28:28;100447.73;;;11.80;62.27
78841;BME280;68379;47.190;27.558;2024-02-21T12:31:00;100444.94;;;11.84;61.94
78841;BME280;68379;47.190;27.558;2024-02-21T12:33:34;100446.14;;;11.90;62.75
78841;BME280;68379;47.190;27.558;2024-02-21T12:36:06;100443.33;;;11.84;61.82
78841;BME280;68379;47.190;27.558;2024-02-21T12:38:39;100440.17;;;11.78;62.16
78841;BME280;68379;47.190;27.558;2024-02-21T12:41:10;100437.39;;;11.82;61.90
78841;BME280;68379;47.190;27.558;2024-02-21T12:43:42;100438.69;;;11.85;62.25
78841;BME280;68379;47.190;27.558;2024-02-21T12:46:14;100434.64;;;11.90;62.33
78841;BME280;68379;47.190;27.558;2024-02-21T12:48:46;100433.02;;;11.95;61.96
78841;BME280;68379;47.190;27.558;2024-02-21T12:51:17;100434.48;;;11.95;61.47
78841;BME280;68379;47.190;27.558;2024-02-21T12:53:49;100427.19;;;11.96;61.33
78841;BME280;68379;47.190;27.558;2024-02-21T12:56:21;100427.19;;;12.01;60.75
78841;BME280;68379;47.190;27.558;2024-02-21T12:58:52;100425.77;;;12.01;59.34
78841;BME280;68379;47.190;27.558;2024-02-21T13:01:24;100425.00;;;11.98;60.58
78841;BME280;68379;47.190;27.558;2024-02-21T13:03:56;100419.25;;;11.94;59.48
78841;BME280;68379;47.190;27.558;2024-02-21T13:06:31;100419.33;;;11.92;61.32
78841;BME280;68379;47.190;27.558;2024-02-21T13:09:02;100417.54;;;11.89;61.75
78841;BME280;68379;47.190;27.558;2024-02-21T13:11:38;100417.73;;;11.87;61.45
78841;BME280;68379;47.190;27.558;2024-02-21T13:14:10;100415.41;;;11.88;61.61